sensor_id;sensor_type;location;lat;lon;timestamp;P1;durP1;ratioP1;P2;durP2;ratioP2
79478;SDS011;68943;49.472;17.970;2023-06-14T00:01:04;6.40;;;5.55;;
79478;SDS011;68943;49.472;17.970;2023-06-14T00:03:31;7.47;;;5.28;;
79478;SDS011;68943;49.472;17.970;2023-06-14T00:05:59;11.70;;;4.57;;
79478;SDS011;68943;49.472;17.970;2023-06-14T00:08:25;6.68;;;4.15;;
79478;SDS011;68943;49.472;17.970;2023-06-14T00:10:51;7.40;;;5.00;;
79478;SDS011;68943;49.472;17.970;2023-06-14T00:13:17;7.55;;;4.78;;
79478;SDS011;68943;49.472;17.970;2023-06-14T00:15:43;9.02;;;5.40;;
79478;SDS011;68943;49.472;17.970;2023-06-14T00:18:09;7.78;;;4.95;;
79478;SDS011;68943;49.472;17.970;2023-06-14T00:20:37;8.43;;;5.05;;
79478;SDS011;68943;49.472;17.970;2023-06-14T00:23:04;8.52;;;5.05;;
79478;SDS011;68943;49.472;17.970;2023-06-14T00:25:30;7.65;;;5.72;;
79478;SDS011;68943;49.472;17.970;2023-06-14T00:27:57;7.88;;;6.18;;
79478;SDS011;68943;49.472;17.970;2023-06-14T00:30:23;6.63;;;4.93;;
79478;SDS011;68943;49.472;17.970;2023-06-14T00:32:49;7.78;;;5.38;;
79478;SDS011;68943;49.472;17.970;2023-06-14T00:35:16;7.43;;;4.50;;
79478;SDS011;68943;49.472;17.970;2023-06-14T00:37:42;6.90;;;5.18;;
79478;SDS011;68943;49.472;17.970;2023-06-14T00:40:09;8.98;;;5.80;;
79478;SDS011;68943;49.472;17.970;2023-06-14T00:42:35;10.50;;;5.63;;
79478;SDS011;68943;49.472;17.970;2023-06-14T00:45:01;6.35;;;4.53;;
79478;SDS011;68943;49.472;17.970;2023-06-14T00:47:27;7.63;;;4.80;;
79478;SDS011;68943;49.472;17.970;2023-06-14T00:49:53;8.30;;;4.93;;
79478;SDS011;68943;49.472;17.970;2023-06-14T00:52:21;9.05;;;6.25;;
79478;SDS011;68943;49.472;17.970;2023-06-14T00:54:49;8.77;;;5.80;;
79478;SDS011;68943;49.472;17.970;2023-06-14T00:57:15;6.53;;;5.70;;
79478;SDS011;68943;49.472;17.970;2023-06-14T00:59:43;8.80;;;5.93;;
79478;SDS011;68943;49.472;17.970;2023-06-14T01:02:09;9.70;;;5.13;;
79478;SDS011;68943;49.472;17.970;2023-06-14T01:04:36;6.70;;;5.82;;
79478;SDS011;68943;49.472;17.970;2023-06-14T01:13:14;6.60;;;5.68;;
79478;SDS011;68943;49.472;17.970;2023-06-14T01:15:41;6.88;;;4.85;;
79478;SDS011;68943;49.472;17.970;2023-06-14T01:18:08;7.50;;;4.95;;
79478;SDS011;68943;49.472;17.970;2023-06-14T01:20:42;7.72;;;5.82;;
79478;SDS011;68943;49.472;17.970;2023-06-14T01:23:09;7.45;;;5.28;;
79478;SDS011;68943;49.472;17.970;2023-06-14T01:25:37;7.28;;;4.47;;
79478;SDS011;68943;49.472;17.970;2023-06-14T01:28:04;7.85;;;6.32;;
79478;SDS011;68943;49.472;17.970;2023-06-14T01:30:35;7.72;;;5.78;;
79478;SDS011;68943;49.472;17.970;2023-06-14T01:33:02;14.63;;;5.18;;
79478;SDS011;68943;49.472;17.970;2023-06-14T01:35:28;6.57;;;4.25;;
79478;SDS011;68943;49.472;17.970;2023-06-14T01:37:55;7.30;;;5.40;;
79478;SDS011;68943;49.472;17.970;2023-06-14T01:40:22;8.02;;;5.75;;
79478;SDS011;68943;49.472;17.970;2023-06-14T01:42:49;9.85;;;5.88;;
79478;SDS011;68943;49.472;17.970;2023-06-14T01:45:15;8.73;;;4.88;;
79478;SDS011;68943;49.472;17.970;2023-06-14T01:47:42;7.60;;;5.43;;
79478;SDS011;68943;49.472;17.970;2023-06-14T01:50:09;9.32;;;6.60;;
79478;SDS011;68943;49.472;17.970;2023-06-14T01:52:36;10.30;;;5.85;;
79478;SDS011;68943;49.472;17.970;2023-06-14T01:55:04;8.50;;;6.78;;
79478;SDS011;68943;49.472;17.970;2023-06-14T01:57:30;7.07;;;4.88;;
79478;SDS011;68943;49.472;17.970;2023-06-14T01:59:57;7.75;;;5.65;;
79478;SDS011;68943;49.472;17.970;2023-06-14T02:02:23;9.20;;;5.68;;
79478;SDS011;68943;49.472;17.970;2023-06-14T02:04:49;9.20;;;5.25;;
79478;SDS011;68943;49.472;17.970;2023-06-14T02:07:15;8.38;;;5.35;;
79478;SDS011;68943;49.472;17.970;2023-06-14T02:09:41;8.27;;;5.43;;
79478;SDS011;68943;49.472;17.970;2023-06-14T02:12:08;8.13;;;6.18;;
79478;SDS011;68943;49.472;17.970;2023-06-14T02:14:35;9.85;;;5.38;;
79478;SDS011;68943;49.472;17.970;2023-06-14T02:17:03;9.10;;;6.07;;
79478;SDS011;68943;49.472;17.970;2023-06-14T02:19:29;10.50;;;5.40;;
79478;SDS011;68943;49.472;17.970;2023-06-14T02:21:56;8.00;;;5.63;;
79478;SDS011;68943;49.472;17.970;2023-06-14T02:24:22;8.27;;;5.00;;
79478;SDS011;68943;49.472;17.970;2023-06-14T02:26:48;7.15;;;4.97;;
79478;SDS011;68943;49.472;17.970;2023-06-14T02:29:15;8.25;;;6.25;;
79478;SDS011;68943;49.472;17.970;2023-06-14T02:31:41;8.13;;;5.50;;
79478;SDS011;68943;49.472;17.970;2023-06-14T02:34:07;9.00;;;5.57;;
79478;SDS011;68943;49.472;17.970;2023-06-14T02:36:34;7.20;;;4.47;;
79478;SDS011;68943;49.472;17.970;2023-06-14T02:39:00;8.63;;;5.65;;
79478;SDS011;68943;49.472;17.970;2023-06-14T02:41:26;8.40;;;4.90;;
79478;SDS011;68943;49.472;17.970;2023-06-14T02:43:52;7.68;;;5.00;;
79478;SDS011;68943;49.472;17.970;2023-06-14T02:46:18;7.20;;;4.72;;
79478;SDS011;68943;49.472;17.970;2023-06-14T02:48:45;8.10;;;5.32;;
79478;SDS011;68943;49.472;17.970;2023-06-14T02:51:11;8.13;;;5.20;;
79478;SDS011;68943;49.472;17.970;2023-06-14T02:53:37;6.60;;;4.72;;
79478;SDS011;68943;49.472;17.970;2023-06-14T02:56:03;9.43;;;5.90;;
79478;SDS011;68943;49.472;17.970;2023-06-14T02:58:30;10.15;;;7.03;;
79478;SDS011;68943;49.472;17.970;2023-06-14T03:00:56;9.65;;;5.60;;
79478;SDS011;68943;49.472;17.970;2023-06-14T03:03:22;9.95;;;6.45;;
79478;SDS011;68943;49.472;17.970;2023-06-14T03:05:50;7.60;;;5.75;;
79478;SDS011;68943;49.472;17.970;2023-06-14T03:08:16;8.25;;;5.70;;
79478;SDS011;68943;49.472;17.970;2023-06-14T03:10:47;7.47;;;5.13;;
79478;SDS011;68943;49.472;17.970;2023-06-14T03:13:13;8.52;;;5.82;;
79478;SDS011;68943;49.472;17.970;2023-06-14T03:15:41;8.20;;;4.90;;
79478;SDS011;68943;49.472;17.970;2023-06-14T03:18:07;7.32;;;5.60;;
79478;SDS011;68943;49.472;17.970;2023-06-14T03:20:34;6.78;;;4.47;;
79478;SDS011;68943;49.472;17.970;2023-06-14T03:23:01;6.38;;;4.45;;
79478;SDS011;68943;49.472;17.970;2023-06-14T03:25:28;7.60;;;4.88;;
79478;SDS011;68943;49.472;17.970;2023-06-14T03:27:55;6.32;;;3.95;;
79478;SDS011;68943;49.472;17.970;2023-06-14T03:30:21;7.55;;;4.28;;
79478;SDS011;68943;49.472;17.970;2023-06-14T03:32:47;8.70;;;4.72;;
79478;SDS011;68943;49.472;17.970;2023-06-14T03:35:13;6.05;;;4.25;;
79478;SDS011;68943;49.472;17.970;2023-06-14T03:37:46;7.90;;;4.85;;
79478;SDS011;68943;49.472;17.970;2023-06-14T03:40:12;5.70;;;4.47;;
79478;SDS011;68943;49.472;17.970;2023-06-14T03:42:39;9.07;;;5.60;;
79478;SDS011;68943;49.472;17.970;2023-06-14T03:45:05;6.45;;;4.32;;
79478;SDS011;68943;49.472;17.970;2023-06-14T03:47:33;8.18;;;5.68;;
79478;SDS011;68943;49.472;17.970;2023-06-14T03:50:00;9.02;;;4.85;;
79478;SDS011;68943;49.472;17.970;2023-06-14T03:52:27;9.48;;;6.00;;
79478;SDS011;68943;49.472;17.970;2023-06-14T03:54:53;9.98;;;5.45;;
79478;SDS011;68943;49.472;17.970;2023-06-14T03:57:21;6.43;;;5.18;;
79478;SDS011;68943;49.472;17.970;2023-06-14T03:59:47;6.72;;;5.07;;
79478;SDS011;68943;49.472;17.970;2023-06-14T04:02:13;6.63;;;4.95;;
79478;SDS011;68943;49.472;17.970;2023-06-14T04:04:43;7.18;;;5.15;;
79478;SDS011;68943;49.472;17.970;2023-06-14T04:07:10;9.05;;;5.47;;
79478;SDS011;68943;49.472;17.970;2023-06-14T04:09:37;9.38;;;5.70;;
79478;SDS011;68943;49.472;17.970;2023-06-14T04:12:03;11.85;;;6.78;;
79478;SDS011;68943;49.472;17.970;2023-06-14T04:14:30;10.27;;;7.22;;
79478;SDS011;68943;49.472;17.970;2023-06-14T04:16:57;12.98;;;8.05;;
79478;SDS011;68943;49.472;17.970;2023-06-14T04:19:27;14.13;;;8.23;;
79478;SDS011;68943;49.472;17.970;2023-06-14T04:21:53;15.07;;;8.88;;
79478;SDS011;68943;49.472;17.970;2023-06-14T04:24:20;15.25;;;9.32;;
79478;SDS011;68943;49.472;17.970;2023-06-14T04:26:46;16.27;;;9.40;;
79478;SDS011;68943;49.472;17.970;2023-06-14T04:29:16;15.85;;;8.65;;
79478;SDS011;68943;49.472;17.970;2023-06-14T04:31:45;15.50;;;9.50;;
79478;SDS011;68943;49.472;17.970;2023-06-14T04:34:11;17.90;;;9.90;;
79478;SDS011;68943;49.472;17.970;2023-06-14T04:36:43;18.08;;;9.75;;
79478;SDS011;68943;49.472;17.970;2023-06-14T04:39:21;20.60;;;11.98;;
79478;SDS011;68943;49.472;17.970;2023-06-14T04:41:47;19.92;;;10.65;;
79478;SDS011;68943;49.472;17.970;2023-06-14T04:46:46;20.45;;;11.68;;
79478;SDS011;68943;49.472;17.970;2023-06-14T04:49:13;14.63;;;8.82;;
79478;SDS011;68943;49.472;17.970;2023-06-14T04:51:40;21.88;;;11.73;;
79478;SDS011;68943;49.472;17.970;2023-06-14T04:54:07;20.08;;;10.85;;
79478;SDS011;68943;49.472;17.970;2023-06-14T04:56:39;20.42;;;11.18;;
79478;SDS011;68943;49.472;17.970;2023-06-14T04:59:05;21.92;;;12.13;;
79478;SDS011;68943;49.472;17.970;2023-06-14T05:01:31;19.27;;;11.43;;
79478;SDS011;68943;49.472;17.970;2023-06-14T05:03:58;18.58;;;9.48;;
79478;SDS011;68943;49.472;17.970;2023-06-14T05:06:24;19.95;;;10.13;;
79478;SDS011;68943;49.472;17.970;2023-06-14T05:08:52;20.30;;;11.55;;
79478;SDS011;68943;49.472;17.970;2023-06-14T05:11:18;18.85;;;10.73;;
79478;SDS011;68943;49.472;17.970;2023-06-14T05:13:45;18.20;;;9.25;;
79478;SDS011;68943;49.472;17.970;2023-06-14T05:16:12;19.65;;;10.77;;
79478;SDS011;68943;49.472;17.970;2023-06-14T05:21:07;19.60;;;9.80;;
79478;SDS011;68943;49.472;17.970;2023-06-14T05:23:35;29.67;;;13.65;;
79478;SDS011;68943;49.472;17.970;2023-06-14T05:26:02;27.17;;;13.40;;
79478;SDS011;68943;49.472;17.970;2023-06-14T05:28:29;25.02;;;13.55;;
79478;SDS011;68943;49.472;17.970;2023-06-14T05:30:56;26.73;;;13.30;;
79478;SDS011;68943;49.472;17.970;2023-06-14T05:33:23;29.13;;;13.68;;
79478;SDS011;68943;49.472;17.970;2023-06-14T05:35:49;27.17;;;12.90;;
79478;SDS011;68943;49.472;17.970;2023-06-14T05:38:15;24.38;;;12.63;;
79478;SDS011;68943;49.472;17.970;2023-06-14T05:40:41;29.90;;;12.82;;
79478;SDS011;68943;49.472;17.970;2023-06-14T05:43:07;23.50;;;11.60;;
79478;SDS011;68943;49.472;17.970;2023-06-14T05:45:33;26.23;;;13.48;;
79478;SDS011;68943;49.472;17.970;2023-06-14T05:48:00;29.27;;;15.18;;
79478;SDS011;68943;49.472;17.970;2023-06-14T05:50:26;26.77;;;13.88;;
79478;SDS011;68943;49.472;17.970;2023-06-14T05:52:53;27.52;;;13.02;;
79478;SDS011;68943;49.472;17.970;2023-06-14T05:55:19;28.45;;;15.00;;
79478;SDS011;68943;49.472;17.970;2023-06-14T05:57:45;33.13;;;15.10;;
79478;SDS011;68943;49.472;17.970;2023-06-14T06:00:13;32.17;;;13.82;;
79478;SDS011;68943;49.472;17.970;2023-06-14T06:02:40;28.58;;;14.38;;
79478;SDS011;68943;49.472;17.970;2023-06-14T06:05:08;32.75;;;14.30;;
79478;SDS011;68943;49.472;17.970;2023-06-14T06:07:34;33.47;;;17.50;;
79478;SDS011;68943;49.472;17.970;2023-06-14T06:10:00;34.78;;;16.98;;
79478;SDS011;68943;49.472;17.970;2023-06-14T06:12:26;36.25;;;16.90;;
79478;SDS011;68943;49.472;17.970;2023-06-14T06:14:52;33.58;;;16.95;;
79478;SDS011;68943;49.472;17.970;2023-06-14T06:17:19;34.20;;;17.73;;
79478;SDS011;68943;49.472;17.970;2023-06-14T06:19:45;29.75;;;14.27;;
79478;SDS011;68943;49.472;17.970;2023-06-14T06:22:11;28.55;;;14.20;;
79478;SDS011;68943;49.472;17.970;2023-06-14T06:24:38;25.95;;;12.68;;
79478;SDS011;68943;49.472;17.970;2023-06-14T06:27:04;28.35;;;13.85;;
79478;SDS011;68943;49.472;17.970;2023-06-14T06:29:35;24.23;;;11.90;;
79478;SDS011;68943;49.472;17.970;2023-06-14T06:32:01;31.15;;;15.50;;
79478;SDS011;68943;49.472;17.970;2023-06-14T06:34:27;24.17;;;12.63;;
79478;SDS011;68943;49.472;17.970;2023-06-14T06:36:53;28.98;;;12.98;;
79478;SDS011;68943;49.472;17.970;2023-06-14T06:39:20;27.10;;;13.90;;
79478;SDS011;68943;49.472;17.970;2023-06-14T06:41:47;21.67;;;12.18;;
79478;SDS011;68943;49.472;17.970;2023-06-14T06:44:13;21.98;;;12.13;;
79478;SDS011;68943;49.472;17.970;2023-06-14T06:46:39;22.75;;;12.15;;
79478;SDS011;68943;49.472;17.970;2023-06-14T06:49:06;26.90;;;12.98;;
79478;SDS011;68943;49.472;17.970;2023-06-14T06:51:32;22.30;;;12.40;;
79478;SDS011;68943;49.472;17.970;2023-06-14T06:53:58;26.88;;;13.10;;
79478;SDS011;68943;49.472;17.970;2023-06-14T06:56:25;23.17;;;12.45;;
79478;SDS011;68943;49.472;17.970;2023-06-14T06:58:52;20.70;;;11.48;;
79478;SDS011;68943;49.472;17.970;2023-06-14T07:01:18;18.77;;;10.05;;
79478;SDS011;68943;49.472;17.970;2023-06-14T07:03:45;19.33;;;8.82;;
79478;SDS011;68943;49.472;17.970;2023-06-14T07:06:12;17.85;;;10.75;;
79478;SDS011;68943;49.472;17.970;2023-06-14T07:08:38;18.30;;;10.55;;
79478;SDS011;68943;49.472;17.970;2023-06-14T07:11:04;17.75;;;10.57;;
79478;SDS011;68943;49.472;17.970;2023-06-14T07:13:31;19.67;;;11.88;;
79478;SDS011;68943;49.472;17.970;2023-06-14T07:15:58;16.63;;;9.07;;
79478;SDS011;68943;49.472;17.970;2023-06-14T07:18:26;21.50;;;10.38;;
79478;SDS011;68943;49.472;17.970;2023-06-14T07:20:52;19.15;;;12.02;;
79478;SDS011;68943;49.472;17.970;2023-06-14T07:23:19;20.08;;;10.80;;
79478;SDS011;68943;49.472;17.970;2023-06-14T07:25:45;17.48;;;10.57;;
79478;SDS011;68943;49.472;17.970;2023-06-14T07:28:18;22.02;;;12.80;;
79478;SDS011;68943;49.472;17.970;2023-06-14T07:30:44;17.45;;;10.30;;
79478;SDS011;68943;49.472;17.970;2023-06-14T07:33:11;18.77;;;11.43;;
79478;SDS011;68943;49.472;17.970;2023-06-14T07:35:38;19.45;;;10.05;;
79478;SDS011;68943;49.472;17.970;2023-06-14T07:38:05;16.80;;;11.13;;
79478;SDS011;68943;49.472;17.970;2023-06-14T07:40:31;19.05;;;10.73;;
79478;SDS011;68943;49.472;17.970;2023-06-14T07:42:57;20.10;;;10.65;;
79478;SDS011;68943;49.472;17.970;2023-06-14T07:45:23;23.13;;;11.05;;
79478;SDS011;68943;49.472;17.970;2023-06-14T07:47:52;20.13;;;11.25;;
79478;SDS011;68943;49.472;17.970;2023-06-14T07:50:19;18.02;;;10.93;;
79478;SDS011;68943;49.472;17.970;2023-06-14T07:52:45;17.38;;;9.77;;
79478;SDS011;68943;49.472;17.970;2023-06-14T07:55:13;16.88;;;9.05;;
79478;SDS011;68943;49.472;17.970;2023-06-14T07:57:40;17.38;;;9.63;;
79478;SDS011;68943;49.472;17.970;2023-06-14T08:00:07;19.83;;;11.07;;
79478;SDS011;68943;49.472;17.970;2023-06-14T08:02:37;20.58;;;11.68;;
79478;SDS011;68943;49.472;17.970;2023-06-14T08:05:04;23.42;;;10.90;;
79478;SDS011;68943;49.472;17.970;2023-06-14T08:07:31;25.27;;;13.48;;
79478;SDS011;68943;49.472;17.970;2023-06-14T08:09:58;24.52;;;12.82;;
79478;SDS011;68943;49.472;17.970;2023-06-14T08:12:24;23.20;;;12.02;;
79478;SDS011;68943;49.472;17.970;2023-06-14T08:14:50;21.90;;;12.85;;
79478;SDS011;68943;49.472;17.970;2023-06-14T08:17:16;21.10;;;12.25;;
79478;SDS011;68943;49.472;17.970;2023-06-14T08:19:44;23.80;;;12.43;;
79478;SDS011;68943;49.472;17.970;2023-06-14T08:22:10;23.15;;;12.35;;
79478;SDS011;68943;49.472;17.970;2023-06-14T08:24:38;23.38;;;12.20;;
79478;SDS011;68943;49.472;17.970;2023-06-14T08:27:08;21.77;;;12.40;;
79478;SDS011;68943;49.472;17.970;2023-06-14T08:29:34;19.33;;;10.63;;
79478;SDS011;68943;49.472;17.970;2023-06-14T08:32:01;16.60;;;10.25;;
79478;SDS011;68943;49.472;17.970;2023-06-14T08:34:27;18.75;;;11.38;;
79478;SDS011;68943;49.472;17.970;2023-06-14T08:36:53;20.85;;;11.75;;
79478;SDS011;68943;49.472;17.970;2023-06-14T08:39:19;22.23;;;12.02;;
79478;SDS011;68943;49.472;17.970;2023-06-14T08:41:47;17.17;;;10.32;;
79478;SDS011;68943;49.472;17.970;2023-06-14T08:44:15;12.88;;;7.43;;
79478;SDS011;68943;49.472;17.970;2023-06-14T08:46:42;13.18;;;8.52;;
79478;SDS011;68943;49.472;17.970;2023-06-14T08:49:11;19.45;;;11.23;;
79478;SDS011;68943;49.472;17.970;2023-06-14T08:51:37;16.73;;;9.80;;
79478;SDS011;68943;49.472;17.970;2023-06-14T08:54:05;15.63;;;9.07;;
79478;SDS011;68943;49.472;17.970;2023-06-14T08:56:32;15.65;;;6.82;;
79478;SDS011;68943;49.472;17.970;2023-06-14T08:58:59;15.38;;;9.65;;
79478;SDS011;68943;49.472;17.970;2023-06-14T09:01:30;13.80;;;8.23;;
79478;SDS011;68943;49.472;17.970;2023-06-14T09:03:56;15.13;;;9.45;;
79478;SDS011;68943;49.472;17.970;2023-06-14T09:06:22;12.98;;;8.15;;
79478;SDS011;68943;49.472;17.970;2023-06-14T09:08:51;13.73;;;7.90;;
79478;SDS011;68943;49.472;17.970;2023-06-14T09:11:17;13.90;;;8.52;;
79478;SDS011;68943;49.472;17.970;2023-06-14T09:13:44;14.20;;;8.55;;
79478;SDS011;68943;49.472;17.970;2023-06-14T09:16:12;14.02;;;9.68;;
79478;SDS011;68943;49.472;17.970;2023-06-14T09:18:42;13.93;;;8.60;;
79478;SDS011;68943;49.472;17.970;2023-06-14T09:21:13;17.50;;;7.53;;
79478;SDS011;68943;49.472;17.970;2023-06-14T09:23:40;12.15;;;8.23;;
79478;SDS011;68943;49.472;17.970;2023-06-14T09:26:16;13.57;;;7.80;;
79478;SDS011;68943;49.472;17.970;2023-06-14T09:28:46;11.73;;;6.43;;
79478;SDS011;68943;49.472;17.970;2023-06-14T09:31:16;10.43;;;6.30;;
79478;SDS011;68943;49.472;17.970;2023-06-14T09:33:43;10.95;;;6.57;;
79478;SDS011;68943;49.472;17.970;2023-06-14T09:36:24;10.77;;;6.90;;
79478;SDS011;68943;49.472;17.970;2023-06-14T09:38:52;12.98;;;8.32;;
79478;SDS011;68943;49.472;17.970;2023-06-14T09:41:19;12.40;;;7.75;;
79478;SDS011;68943;49.472;17.970;2023-06-14T09:43:46;13.82;;;7.55;;
79478;SDS011;68943;49.472;17.970;2023-06-14T09:46:13;12.30;;;6.93;;
79478;SDS011;68943;49.472;17.970;2023-06-14T09:48:39;13.38;;;6.60;;
79478;SDS011;68943;49.472;17.970;2023-06-14T09:51:11;11.80;;;7.72;;
79478;SDS011;68943;49.472;17.970;2023-06-14T09:53:42;14.50;;;9.45;;
79478;SDS011;68943;49.472;17.970;2023-06-14T09:56:10;12.60;;;7.95;;
79478;SDS011;68943;49.472;17.970;2023-06-14T09:58:37;12.18;;;8.48;;
79478;SDS011;68943;49.472;17.970;2023-06-14T10:01:05;13.25;;;7.93;;
79478;SDS011;68943;49.472;17.970;2023-06-14T10:03:34;12.80;;;7.85;;
79478;SDS011;68943;49.472;17.970;2023-06-14T10:06:01;12.15;;;8.32;;
79478;SDS011;68943;49.472;17.970;2023-06-14T10:08:29;21.48;;;7.72;;
79478;SDS011;68943;49.472;17.970;2023-06-14T10:10:59;12.75;;;7.88;;
79478;SDS011;68943;49.472;17.970;2023-06-14T10:13:25;11.40;;;6.90;;
79478;SDS011;68943;49.472;17.970;2023-06-14T10:18:49;14.60;;;8.23;;
79478;SDS011;68943;49.472;17.970;2023-06-14T10:21:31;14.60;;;8.35;;
79478;SDS011;68943;49.472;17.970;2023-06-14T10:24:03;11.93;;;7.95;;
79478;SDS011;68943;49.472;17.970;2023-06-14T10:26:30;11.00;;;8.45;;
79478;SDS011;68943;49.472;17.970;2023-06-14T10:29:00;11.18;;;6.70;;
79478;SDS011;68943;49.472;17.970;2023-06-14T10:31:48;11.05;;;7.35;;
79478;SDS011;68943;49.472;17.970;2023-06-14T10:34:21;11.63;;;8.40;;
79478;SDS011;68943;49.472;17.970;2023-06-14T10:37:07;11.20;;;7.50;;
79478;SDS011;68943;49.472;17.970;2023-06-14T10:42:10;12.10;;;7.47;;
79478;SDS011;68943;49.472;17.970;2023-06-14T10:44:40;12.32;;;7.88;;
79478;SDS011;68943;49.472;17.970;2023-06-14T10:47:10;12.77;;;8.07;;
79478;SDS011;68943;49.472;17.970;2023-06-14T10:52:10;12.25;;;7.45;;
79478;SDS011;68943;49.472;17.970;2023-06-14T10:57:33;9.98;;;6.70;;
79478;SDS011;68943;49.472;17.970;2023-06-14T11:00:00;13.35;;;7.13;;
79478;SDS011;68943;49.472;17.970;2023-06-14T11:05:18;9.60;;;6.22;;
79478;SDS011;68943;49.472;17.970;2023-06-14T11:10:36;11.23;;;7.15;;
79478;SDS011;68943;49.472;17.970;2023-06-14T11:13:04;9.38;;;7.15;;
79478;SDS011;68943;49.472;17.970;2023-06-14T11:15:30;11.52;;;7.03;;
79478;SDS011;68943;49.472;17.970;2023-06-14T11:17:57;9.65;;;6.82;;
79478;SDS011;68943;49.472;17.970;2023-06-14T11:20:29;10.82;;;6.88;;
79478;SDS011;68943;49.472;17.970;2023-06-14T11:22:55;10.48;;;5.88;;
79478;SDS011;68943;49.472;17.970;2023-06-14T11:25:21;11.15;;;7.10;;
79478;SDS011;68943;49.472;17.970;2023-06-14T11:27:51;10.00;;;7.38;;
79478;SDS011;68943;49.472;17.970;2023-06-14T11:30:18;11.65;;;7.80;;
79478;SDS011;68943;49.472;17.970;2023-06-14T11:32:49;12.05;;;8.90;;
79478;SDS011;68943;49.472;17.970;2023-06-14T11:35:18;15.40;;;9.27;;
79478;SDS011;68943;49.472;17.970;2023-06-14T11:37:44;13.07;;;7.40;;
79478;SDS011;68943;49.472;17.970;2023-06-14T11:40:11;10.43;;;6.70;;
79478;SDS011;68943;49.472;17.970;2023-06-14T11:43:01;12.23;;;5.97;;
79478;SDS011;68943;49.472;17.970;2023-06-14T11:45:28;11.77;;;7.82;;
79478;SDS011;68943;49.472;17.970;2023-06-14T11:47:56;14.00;;;8.13;;
79478;SDS011;68943;49.472;17.970;2023-06-14T11:50:22;12.55;;;7.47;;
79478;SDS011;68943;49.472;17.970;2023-06-14T11:52:53;10.90;;;8.02;;
79478;SDS011;68943;49.472;17.970;2023-06-14T11:55:20;8.38;;;5.95;;
79478;SDS011;68943;49.472;17.970;2023-06-14T11:57:47;14.63;;;7.05;;
79478;SDS011;68943;49.472;17.970;2023-06-14T12:00:14;11.40;;;6.90;;
79478;SDS011;68943;49.472;17.970;2023-06-14T12:02:41;10.98;;;6.80;;
79478;SDS011;68943;49.472;17.970;2023-06-14T12:05:07;12.10;;;8.10;;
79478;SDS011;68943;49.472;17.970;2023-06-14T12:07:38;11.60;;;7.50;;
79478;SDS011;68943;49.472;17.970;2023-06-14T12:12:45;9.85;;;6.68;;
79478;SDS011;68943;49.472;17.970;2023-06-14T12:15:11;12.48;;;7.88;;
79478;SDS011;68943;49.472;17.970;2023-06-14T12:17:49;12.00;;;6.95;;
79478;SDS011;68943;49.472;17.970;2023-06-14T12:20:19;12.07;;;8.23;;
79478;SDS011;68943;49.472;17.970;2023-06-14T12:22:53;10.70;;;7.15;;
79478;SDS011;68943;49.472;17.970;2023-06-14T12:28:07;9.75;;;6.47;;
79478;SDS011;68943;49.472;17.970;2023-06-14T12:30:34;11.80;;;6.78;;
79478;SDS011;68943;49.472;17.970;2023-06-14T12:33:02;8.98;;;6.00;;
79478;SDS011;68943;49.472;17.970;2023-06-14T12:35:29;9.93;;;7.30;;
79478;SDS011;68943;49.472;17.970;2023-06-14T12:37:55;8.63;;;5.18;;
79478;SDS011;68943;49.472;17.970;2023-06-14T12:40:22;11.05;;;5.97;;
79478;SDS011;68943;49.472;17.970;2023-06-14T12:42:48;10.70;;;6.43;;
79478;SDS011;68943;49.472;17.970;2023-06-14T12:45:16;10.27;;;6.13;;
79478;SDS011;68943;49.472;17.970;2023-06-14T12:47:43;10.32;;;6.13;;
79478;SDS011;68943;49.472;17.970;2023-06-14T12:50:10;8.18;;;4.43;;
79478;SDS011;68943;49.472;17.970;2023-06-14T12:52:36;7.20;;;4.95;;
79478;SDS011;68943;49.472;17.970;2023-06-14T12:55:03;8.57;;;5.97;;
79478;SDS011;68943;49.472;17.970;2023-06-14T12:57:31;8.80;;;6.30;;
79478;SDS011;68943;49.472;17.970;2023-06-14T12:59:59;9.43;;;5.78;;
79478;SDS011;68943;49.472;17.970;2023-06-14T13:02:25;9.32;;;6.40;;
79478;SDS011;68943;49.472;17.970;2023-06-14T13:04:52;11.32;;;5.53;;
79478;SDS011;68943;49.472;17.970;2023-06-14T13:07:19;9.85;;;6.57;;
79478;SDS011;68943;49.472;17.970;2023-06-14T13:09:49;9.88;;;6.10;;
79478;SDS011;68943;49.472;17.970;2023-06-14T13:12:18;8.32;;;5.53;;
79478;SDS011;68943;49.472;17.970;2023-06-14T13:14:48;11.82;;;5.90;;
79478;SDS011;68943;49.472;17.970;2023-06-14T13:17:14;7.68;;;5.30;;
79478;SDS011;68943;49.472;17.970;2023-06-14T13:19:40;7.20;;;5.15;;
79478;SDS011;68943;49.472;17.970;2023-06-14T13:25:10;16.40;;;5.45;;
79478;SDS011;68943;49.472;17.970;2023-06-14T13:27:36;8.55;;;5.38;;
79478;SDS011;68943;49.472;17.970;2023-06-14T13:30:03;8.32;;;5.40;;
79478;SDS011;68943;49.472;17.970;2023-06-14T13:32:33;10.90;;;6.35;;
79478;SDS011;68943;49.472;17.970;2023-06-14T13:35:07;8.70;;;5.55;;
79478;SDS011;68943;49.472;17.970;2023-06-14T13:37:33;7.50;;;4.78;;
79478;SDS011;68943;49.472;17.970;2023-06-14T13:40:02;7.85;;;5.22;;
79478;SDS011;68943;49.472;17.970;2023-06-14T13:42:28;9.20;;;5.32;;
79478;SDS011;68943;49.472;17.970;2023-06-14T13:44:58;11.77;;;4.72;;
79478;SDS011;68943;49.472;17.970;2023-06-14T13:50:26;7.93;;;4.57;;
79478;SDS011;68943;49.472;17.970;2023-06-14T13:52:56;5.63;;;4.22;;
79478;SDS011;68943;49.472;17.970;2023-06-14T13:55:22;7.93;;;5.07;;
79478;SDS011;68943;49.472;17.970;2023-06-14T13:57:53;7.90;;;5.55;;
79478;SDS011;68943;49.472;17.970;2023-06-14T14:00:21;6.72;;;4.55;;
79478;SDS011;68943;49.472;17.970;2023-06-14T14:02:47;8.00;;;5.10;;
79478;SDS011;68943;49.472;17.970;2023-06-14T14:05:15;8.38;;;4.53;;
79478;SDS011;68943;49.472;17.970;2023-06-14T14:07:41;9.00;;;5.18;;
79478;SDS011;68943;49.472;17.970;2023-06-14T14:10:10;7.80;;;5.50;;
79478;SDS011;68943;49.472;17.970;2023-06-14T14:12:38;10.15;;;6.22;;
79478;SDS011;68943;49.472;17.970;2023-06-14T14:15:05;9.48;;;6.20;;
79478;SDS011;68943;49.472;17.970;2023-06-14T14:17:37;8.13;;;5.32;;
79478;SDS011;68943;49.472;17.970;2023-06-14T14:20:03;10.13;;;5.88;;
79478;SDS011;68943;49.472;17.970;2023-06-14T14:22:32;15.98;;;5.82;;
79478;SDS011;68943;49.472;17.970;2023-06-14T14:24:58;8.30;;;4.88;;
79478;SDS011;68943;49.472;17.970;2023-06-14T14:27:25;7.30;;;4.47;;
79478;SDS011;68943;49.472;17.970;2023-06-14T14:29:53;7.55;;;4.68;;
79478;SDS011;68943;49.472;17.970;2023-06-14T14:32:19;7.55;;;4.68;;
79478;SDS011;68943;49.472;17.970;2023-06-14T14:34:46;6.03;;;3.88;;
79478;SDS011;68943;49.472;17.970;2023-06-14T14:37:12;6.25;;;4.32;;
79478;SDS011;68943;49.472;17.970;2023-06-14T14:39:40;7.18;;;5.00;;
79478;SDS011;68943;49.472;17.970;2023-06-14T14:42:06;6.22;;;4.97;;
79478;SDS011;68943;49.472;17.970;2023-06-14T14:44:33;7.35;;;5.10;;
79478;SDS011;68943;49.472;17.970;2023-06-14T14:47:00;7.50;;;4.97;;
79478;SDS011;68943;49.472;17.970;2023-06-14T14:49:26;6.03;;;4.45;;
79478;SDS011;68943;49.472;17.970;2023-06-14T14:51:52;8.48;;;4.80;;
79478;SDS011;68943;49.472;17.970;2023-06-14T14:54:20;7.03;;;4.82;;
79478;SDS011;68943;49.472;17.970;2023-06-14T14:56:46;6.43;;;5.50;;
79478;SDS011;68943;49.472;17.970;2023-06-14T14:59:12;7.80;;;4.35;;
79478;SDS011;68943;49.472;17.970;2023-06-14T15:01:38;9.25;;;4.85;;
79478;SDS011;68943;49.472;17.970;2023-06-14T15:04:04;7.70;;;4.18;;